Time;durP1;ratioP1;P1;durP2;ratioP2;P2;SDS_P1;SDS_P2;PMS_P1;PMS_P2;Temp;Humidity;BMP_temperature;BMP_pressure;BME280_temperature;BME280_humidity;BME280_pressure;Samples;Min_cycle;Max_cycle;Signal;HPM_P1;HPM_P2
2023/03/31 00:01:24;;;;;;;993.83;156.90;;;10.50;99.90;;;;;;5068972;28;20231;-50
2023/03/31 00:04:00;;;;;;;1579.20;193.17;;;10.50;99.90;;;;;;5068529;28;20287;-50
2023/03/31 00:06:29;;;;;;;528.77;80.63;;;10.50;99.90;;;;;;5068840;28;20745;-50
2023/03/31 00:09:00;;;;;;;253.90;50.73;;;10.50;99.90;;;;;;5069184;28;20201;-50
2023/03/31 00:11:30;;;;;;;1392.70;162.27;;;10.50;99.90;;;;;;5068380;28;20296;-51
2023/03/31 00:13:58;;;;;;;298.57;52.50;;;10.50;99.90;;;;;;5068989;28;20291;-50
2023/03/31 00:16:26;;;;;;;521.50;100.20;;;10.50;99.90;;;;;;5068727;28;20319;-50
2023/03/31 00:18:54;;;;;;;790.23;129.23;;;10.50;99.90;;;;;;5068724;28;20204;-51
2023/03/31 00:21:27;;;;;;;437.63;99.87;;;10.40;99.90;;;;;;5069154;28;20295;-50
2023/03/31 00:23:57;;;;;;;474.47;57.20;;;10.30;99.90;;;;;;5068995;28;20228;-50
2023/03/31 00:26:26;;;;;;;634.90;77.80;;;10.30;99.90;;;;;;5068838;28;20252;-50
2023/03/31 00:28:56;;;;;;;808.63;118.23;;;10.30;99.90;;;;;;5068671;28;20220;-50
2023/03/31 00:31:25;;;;;;;574.17;86.73;;;10.20;99.90;;;;;;5068528;28;20292;-50
2023/03/31 00:33:54;;;;;;;1419.10;154.60;;;10.10;99.90;;;;;;5068304;28;20209;-50
2023/03/31 00:36:26;;;;;;;1045.43;124.00;;;10.10;99.90;;;;;;5068653;28;20232;-50
2023/03/31 00:38:55;;;;;;;676.43;112.97;;;10.00;99.90;;;;;;5068707;28;20241;-50
2023/03/31 00:41:23;;;;;;;1999.90;285.07;;;10.00;99.90;;;;;;5068731;28;20204;-49
2023/03/31 00:44:11;;;;;;;1264.97;145.10;;;10.00;99.90;;;;;;5068656;28;20213;-50
2023/03/31 00:46:44;;;;;;;1981.97;286.70;;;9.90;99.90;;;;;;5068689;28;20251;-49
2023/03/31 00:49:19;;;;;;;1686.37;189.37;;;9.90;99.90;;;;;;5068873;28;20232;-50
2023/03/31 00:51:51;;;;;;;419.17;65.57;;;9.90;99.90;;;;;;5068364;28;20208;-50
2023/03/31 00:54:20;;;;;;;1148.00;179.67;;;9.90;99.90;;;;;;5068616;28;20209;-50
2023/03/31 00:56:54;;;;;;;1999.90;317.87;;;9.90;99.90;;;;;;5068690;28;20662;-50
2023/03/31 00:59:27;;;;;;;558.50;96.30;;;9.90;99.90;;;;;;5068519;28;20236;-50
2023/03/31 01:02:01;;;;;;;1673.13;220.07;;;10.00;99.90;;;;;;5068434;28;20204;-50
2023/03/31 01:04:33;;;;;;;1999.90;291.90;;;10.00;99.90;;;;;;5068349;28;20212;-49
2023/03/31 01:07:08;;;;;;;1999.90;474.60;;;10.00;99.90;;;;;;5068282;28;20229;-49
2023/03/31 01:09:37;;;;;;;1427.07;173.03;;;10.00;99.90;;;;;;5068578;28;20327;-50
2023/03/31 01:12:09;;;;;;;1999.90;296.30;;;10.00;99.90;;;;;;5068419;28;20217;-50
2023/03/31 01:14:38;;;;;;;1999.90;272.40;;;10.10;99.90;;;;;;5068057;28;20213;-49
2023/03/31 01:17:08;;;;;;;1888.37;239.37;;;10.10;99.90;;;;;;5068397;28;20227;-50
2023/03/31 01:19:53;;;;;;;794.07;127.53;;;10.10;99.90;;;;;;5066552;28;20684;-50
2023/03/31 01:23:04;;;;;;;1704.00;167.70;;;10.10;99.90;;;;;;5065764;28;20209;-49
2023/03/31 01:26:01;;;;;;;1999.90;327.03;;;10.10;99.90;;;;;;5071467;28;20270;-50
2023/03/31 01:28:36;;;;;;;1778.90;203.63;;;10.10;99.90;;;;;;5071983;28;20216;-50
2023/03/31 01:31:42;;;;;;;89.27;25.87;;;10.10;99.90;;;;;;5071674;28;20669;-50
2023/03/31 01:34:47;;;;;;;1716.80;190.93;;;10.20;99.90;;;;;;5056449;28;20587;-50
2023/03/31 01:37:37;;;;;;;1999.90;253.20;;;10.20;99.90;;;;;;5065762;28;20224;-50
2023/03/31 01:40:24;;;;;;;655.97;94.97;;;10.10;99.90;;;;;;5071560;28;20304;-50
2023/03/31 01:42:57;;;;;;;1236.77;179.70;;;10.10;99.90;;;;;;5071634;28;20209;-51
2023/03/31 01:45:36;;;;;;;855.30;102.87;;;10.10;99.90;;;;;;5071434;28;20316;-50
2023/03/31 01:48:11;;;;;;;1859.80;174.20;;;10.10;99.90;;;;;;5070958;28;20765;-50
2023/03/31 01:50:46;;;;;;;1038.73;129.00;;;10.10;99.90;;;;;;5071703;28;20204;-50
2023/03/31 01:53:20;;;;;;;1285.47;138.07;;;10.10;99.90;;;;;;5071506;28;20271;-50
2023/03/31 01:55:59;;;;;;;895.47;133.00;;;10.10;99.90;;;;;;5071711;28;20306;-50
2023/03/31 01:58:32;;;;;;;1999.90;255.40;;;10.10;99.90;;;;;;5071304;28;20681;-50
2023/03/31 02:01:06;;;;;;;1841.77;226.23;;;10.10;99.90;;;;;;5071093;28;20292;-50
2023/03/31 02:03:39;;;;;;;1999.90;395.30;;;10.10;99.90;;;;;;5071048;28;20327;-50
2023/03/31 02:06:12;;;;;;;1743.60;179.30;;;10.10;99.90;;;;;;5071330;28;20318;-50
2023/03/31 02:08:43;;;;;;;1385.27;172.27;;;10.10;99.90;;;;;;5070951;28;20262;-51
2023/03/31 02:11:14;;;;;;;717.50;79.33;;;10.10;99.90;;;;;;5071294;28;20241;-50
2023/03/31 02:13:45;;;;;;;807.60;107.93;;;10.10;99.90;;;;;;5070706;28;20307;-51
2023/03/31 02:16:20;;;;;;;550.23;52.70;;;10.00;99.90;;;;;;5071268;28;20228;-50
2023/03/31 02:18:51;;;;;;;921.03;107.90;;;10.00;99.90;;;;;;5071313;28;20218;-50
2023/03/31 02:21:21;;;;;;;686.40;65.93;;;10.00;99.90;;;;;;5070738;28;20754;-50
2023/03/31 02:23:51;;;;;;;1130.60;131.93;;;10.00;99.90;;;;;;5070762;28;20278;-50
2023/03/31 02:26:24;;;;;;;1731.37;244.73;;;10.00;99.90;;;;;;5070713;28;20598;-50
2023/03/31 02:28:52;;;;;;;1999.90;348.47;;;10.00;99.90;;;;;;5070901;28;20292;-50
2023/03/31 02:31:28;;;;;;;1999.90;273.50;;;9.90;99.90;;;;;;5070930;28;20205;-50
2023/03/31 02:33:57;;;;;;;937.40;103.37;;;9.80;99.90;;;;;;5070530;28;20205;-50
2023/03/31 02:36:25;;;;;;;762.90;86.67;;;9.90;99.90;;;;;;5070592;28;20264;-50
2023/03/31 02:38:58;;;;;;;1999.90;252.13;;;9.90;99.90;;;;;;5070404;28;20236;-50
2023/03/31 02:41:27;;;;;;;458.27;50.17;;;9.90;99.90;;;;;;5056570;28;20582;-50
2023/03/31 02:43:56;;;;;;;1162.97;145.50;;;9.90;99.90;;;;;;5070503;28;20204;-50
2023/03/31 02:46:24;;;;;;;1358.90;153.60;;;9.90;99.90;;;;;;5069981;28;20757;-50
2023/03/31 02:48:55;;;;;;;1140.13;91.73;;;9.90;99.90;;;;;;5070785;28;20205;-49
2023/03/31 02:51:55;;;;;;;951.80;102.33;;;9.90;99.90;;;;;;5068963;28;20356;-50
2023/03/31 02:54:43;;;;;;;741.93;86.43;;;9.90;99.90;;;;;;5071022;28;20681;-50
2023/03/31 02:57:27;;;;;;;846.47;99.33;;;9.90;99.90;;;;;;5071594;28;20221;-50
2023/03/31 03:00:08;;;;;;;127.67;27.97;;;9.90;99.90;;;;;;5071079;28;20219;-50
2023/03/31 03:02:51;;;;;;;321.43;54.13;;;9.90;99.90;;;;;;5071016;28;20217;-50
2023/03/31 03:05:27;;;;;;;1734.90;181.27;;;9.90;99.90;;;;;;5071007;28;20240;-50
2023/03/31 03:08:01;;;;;;;577.53;76.73;;;9.90;99.90;;;;;;5056711;28;20295;-51
2023/03/31 03:10:38;;;;;;;577.00;81.80;;;9.90;99.90;;;;;;5073274;28;20205;-50
2023/03/31 03:13:16;;;;;;;666.30;77.17;;;9.90;99.90;;;;;;5062012;28;20303;-50
2023/03/31 03:15:47;;;;;;;499.40;57.10;;;9.90;99.90;;;;;;5075072;28;20265;-50
2023/03/31 03:18:15;;;;;;;1808.80;197.23;;;9.90;99.90;;;;;;5075111;28;20224;-48
2023/03/31 03:20:47;;;;;;;583.90;72.20;;;9.90;99.90;;;;;;5075309;28;20232;-50
2023/03/31 03:23:15;;;;;;;1472.97;167.40;;;9.90;99.90;;;;;;5070128;28;20288;-49
2023/03/31 03:25:44;;;;;;;1441.97;160.93;;;9.90;99.90;;;;;;5069520;28;20758;-50
2023/03/31 03:28:14;;;;;;;699.33;99.43;;;9.80;99.90;;;;;;5069621;28;20208;-50
2023/03/31 03:30:42;;;;;;;1973.87;231.03;;;9.90;99.90;;;;;;5069641;28;20215;-49
2023/03/31 03:33:15;;;;;;;1835.83;198.00;;;9.90;99.90;;;;;;5070752;28;20197;-49
2023/03/31 03:35:44;;;;;;;1230.73;150.50;;;9.90;99.90;;;;;;5070020;28;20558;-49
2023/03/31 03:38:12;;;;;;;1229.73;127.67;;;9.90;99.90;;;;;;5070217;28;20254;-49
2023/03/31 03:40:40;;;;;;;1999.90;228.23;;;9.90;99.90;;;;;;5069657;28;20215;-50
2023/03/31 03:43:08;;;;;;;341.43;43.30;;;9.90;99.90;;;;;;5069235;28;20209;-49
2023/03/31 03:45:37;;;;;;;1360.37;157.37;;;9.80;99.90;;;;;;5069199;28;20201;-50
2023/03/31 03:48:05;;;;;;;1999.90;308.23;;;9.90;99.90;;;;;;5068905;28;20348;-49
2023/03/31 03:50:36;;;;;;;353.60;45.97;;;9.90;99.90;;;;;;5069511;28;20288;-49
2023/03/31 03:53:04;;;;;;;821.23;87.20;;;9.90;99.90;;;;;;5069444;28;20236;-49
2023/03/31 03:55:32;;;;;;;432.73;46.57;;;9.90;99.90;;;;;;5069123;28;20232;-50
2023/03/31 03:58:01;;;;;;;518.67;54.23;;;10.00;99.90;;;;;;5069603;28;20201;-49
2023/03/31 04:00:29;;;;;;;1623.63;170.50;;;10.00;99.90;;;;;;5069091;28;20205;-49
2023/03/31 04:02:58;;;;;;;839.80;131.60;;;10.00;99.90;;;;;;5069217;28;20284;-49
2023/03/31 04:05:26;;;;;;;1276.87;156.13;;;10.00;99.90;;;;;;5068902;28;20674;-50
2023/03/31 04:07:54;;;;;;;1655.77;210.63;;;10.00;99.90;;;;;;5069171;28;20228;-51
2023/03/31 04:10:22;;;;;;;1361.70;169.03;;;9.90;99.90;;;;;;5068559;28;20674;-50
2023/03/31 04:12:50;;;;;;;644.93;82.73;;;9.90;99.90;;;;;;5068973;28;20237;-50
2023/03/31 04:15:18;;;;;;;1999.90;252.87;;;9.80;99.90;;;;;;5068903;28;20213;-50
2023/03/31 04:17:49;;;;;;;759.97;106.27;;;9.80;99.90;;;;;;5068934;28;20312;-50
2023/03/31 04:20:19;;;;;;;1875.03;219.83;;;9.80;99.90;;;;;;5068951;28;20204;-49
2023/03/31 04:22:49;;;;;;;1999.90;391.50;;;9.80;99.90;;;;;;5068641;28;20300;-48
2023/03/31 04:25:17;;;;;;;910.60;116.20;;;9.80;99.90;;;;;;5069139;28;20209;-50
2023/03/31 04:27:49;;;;;;;1999.90;354.23;;;9.80;99.90;;;;;;5068869;28;20220;-50
2023/03/31 04:30:22;;;;;;;1813.73;199.43;;;9.70;99.90;;;;;;5068393;28;20201;-50
2023/03/31 04:32:52;;;;;;;1752.17;181.63;;;9.70;99.90;;;;;;5068674;28;20300;-50
2023/03/31 04:35:23;;;;;;;1780.97;200.10;;;9.70;99.90;;;;;;5068769;28;20209;-49
2023/03/31 04:37:57;;;;;;;115.17;31.43;;;9.70;99.90;;;;;;5068467;28;20303;-50
2023/03/31 04:40:25;;;;;;;813.90;98.40;;;9.80;99.90;;;;;;5068898;28;20291;-50
2023/03/31 04:42:53;;;;;;;205.07;37.87;;;9.80;99.90;;;;;;5068649;28;20292;-50
2023/03/31 04:45:21;;;;;;;120.57;25.60;;;9.80;99.90;;;;;;5068710;28;20205;-49
2023/03/31 04:47:49;;;;;;;419.40;53.53;;;9.90;99.90;;;;;;5068304;28;20243;-48
2023/03/31 04:50:18;;;;;;;423.23;46.57;;;9.80;99.90;;;;;;5068731;28;20254;-50
2023/03/31 04:52:47;;;;;;;515.50;66.03;;;9.90;99.90;;;;;;5068010;28;20678;-50
2023/03/31 04:55:15;;;;;;;382.60;62.67;;;9.90;99.90;;;;;;5068623;28;20216;-50
2023/03/31 04:57:43;;;;;;;1012.60;123.83;;;9.90;99.90;;;;;;5069211;28;20225;-50
2023/03/31 05:00:12;;;;;;;451.13;75.77;;;9.90;99.90;;;;;;5072427;28;20209;-49
2023/03/31 05:02:40;;;;;;;1573.93;173.90;;;9.90;99.90;;;;;;5072465;28;20219;-49
2023/03/31 05:05:09;;;;;;;298.53;42.53;;;9.90;99.90;;;;;;5072367;28;20258;-50
2023/03/31 05:07:37;;;;;;;903.93;128.20;;;9.90;99.90;;;;;;5071790;28;20315;-49
2023/03/31 05:10:08;;;;;;;1999.90;399.67;;;9.80;99.90;;;;;;5072341;28;20300;-50
2023/03/31 05:12:36;;;;;;;736.50;100.50;;;9.80;99.90;;;;;;5071656;28;20217;-50
2023/03/31 05:15:05;;;;;;;653.33;72.53;;;9.80;99.90;;;;;;5072246;28;20299;-49
2023/03/31 05:17:34;;;;;;;1438.03;104.13;;;9.80;99.90;;;;;;5072042;28;20252;-50
2023/03/31 05:20:05;;;;;;;1743.27;210.50;;;9.80;99.90;;;;;;5071950;28;20597;-49
2023/03/31 05:22:35;;;;;;;812.53;105.87;;;9.70;99.90;;;;;;5072044;28;20209;-49
2023/03/31 05:25:04;;;;;;;668.87;107.60;;;9.70;99.90;;;;;;5071223;28;20717;-49
2023/03/31 05:27:34;;;;;;;344.73;61.47;;;9.80;99.90;;;;;;5071507;28;20232;-50
2023/03/31 05:30:02;;;;;;;634.77;88.20;;;9.80;99.90;;;;;;5072268;28;20223;-50
2023/03/31 05:32:30;;;;;;;1999.90;314.33;;;9.80;99.90;;;;;;5071819;28;20300;-50
2023/03/31 05:34:58;;;;;;;532.40;64.37;;;9.80;99.90;;;;;;5071989;28;20221;-49
2023/03/31 05:37:26;;;;;;;1801.33;216.57;;;9.80;99.90;;;;;;5071144;28;20932;-50
2023/03/31 05:39:54;;;;;;;1146.50;121.00;;;9.80;99.90;;;;;;5057690;28;20216;-50
2023/03/31 05:42:23;;;;;;;1691.03;196.77;;;9.80;99.90;;;;;;5071770;28;20204;-50
2023/03/31 05:44:52;;;;;;;1346.83;167.13;;;9.80;99.90;;;;;;5071396;28;20567;-50
2023/03/31 05:47:22;;;;;;;1999.90;427.80;;;9.80;99.90;;;;;;5071696;28;20233;-51
2023/03/31 05:49:50;;;;;;;1302.97;138.20;;;9.80;99.90;;;;;;5071242;28;20232;-52
2023/03/31 05:52:18;;;;;;;1256.53;127.87;;;9.80;99.90;;;;;;5071484;28;20809;-51
2023/03/31 05:54:46;;;;;;;1396.40;201.33;;;9.80;99.90;;;;;;5071620;28;20236;-50
2023/03/31 05:57:14;;;;;;;1999.90;323.00;;;9.80;99.90;;;;;;5071626;28;20260;-50
2023/03/31 05:59:42;;;;;;;1117.07;127.27;;;9.90;99.90;;;;;;5071190;28;20236;-51
2023/03/31 06:02:13;;;;;;;1953.33;178.50;;;9.80;99.90;;;;;;5070928;28;20209;-50
2023/03/31 06:04:42;;;;;;;409.83;50.57;;;9.90;99.90;;;;;;5071292;28;20209;-50
2023/03/31 06:07:10;;;;;;;1999.90;325.03;;;9.90;99.90;;;;;;5070736;28;20297;-51
2023/03/31 06:09:38;;;;;;;1833.60;199.67;;;9.80;99.90;;;;;;5070586;28;20209;-51
2023/03/31 06:12:07;;;;;;;1999.90;291.40;;;9.90;99.90;;;;;;5071013;28;20264;-50
2023/03/31 06:14:35;;;;;;;1538.70;179.50;;;9.90;99.90;;;;;;5070890;28;20205;-50
2023/03/31 06:17:03;;;;;;;1555.37;180.47;;;9.80;99.90;;;;;;5071065;28;20275;-51
2023/03/31 06:19:32;;;;;;;1999.90;456.67;;;9.90;99.90;;;;;;5070948;28;20205;-50
2023/03/31 06:22:00;;;;;;;1601.77;201.83;;;9.80;99.90;;;;;;5070847;28;20208;-51
2023/03/31 06:24:28;;;;;;;1847.53;188.33;;;9.80;99.90;;;;;;5070602;28;20291;-50
2023/03/31 06:26:56;;;;;;;1999.90;267.47;;;9.80;99.90;;;;;;5071181;28;20307;-50
2023/03/31 06:29:24;;;;;;;1999.90;262.57;;;9.80;99.90;;;;;;5070916;28;20252;-50
2023/03/31 06:31:52;;;;;;;1281.70;142.70;;;9.80;99.90;;;;;;5070646;28;20300;-50
2023/03/31 06:34:21;;;;;;;1999.90;293.43;;;9.80;99.90;;;;;;5070525;28;20208;-50
2023/03/31 06:36:52;;;;;;;363.40;60.47;;;9.80;99.90;;;;;;5070414;28;20743;-50
2023/03/31 06:39:20;;;;;;;1999.90;452.33;;;9.80;99.90;;;;;;5070913;28;20299;-50
2023/03/31 06:41:48;;;;;;;1309.33;179.10;;;9.70;99.90;;;;;;5070483;28;20295;-50
2023/03/31 06:44:18;;;;;;;1542.63;142.97;;;9.70;99.90;;;;;;5070870;28;20291;-50
2023/03/31 06:46:46;;;;;;;1999.90;294.53;;;9.70;99.90;;;;;;5070618;28;20228;-50
2023/03/31 06:49:14;;;;;;;1471.87;171.47;;;9.70;99.90;;;;;;5070254;28;20286;-51
2023/03/31 06:51:42;;;;;;;818.87;100.60;;;9.70;99.90;;;;;;5070376;28;20231;-51
2023/03/31 06:54:11;;;;;;;1099.97;145.63;;;9.70;99.90;;;;;;5070534;28;20666;-50
2023/03/31 06:56:39;;;;;;;1999.90;468.60;;;9.70;99.90;;;;;;5070284;28;20236;-51
2023/03/31 06:59:07;;;;;;;1999.90;221.07;;;9.70;99.90;;;;;;5070059;28;20201;-50
2023/03/31 07:01:37;;;;;;;1999.90;372.13;;;9.70;99.90;;;;;;5070297;28;20211;-51
2023/03/31 07:04:06;;;;;;;1056.97;130.93;;;9.60;99.90;;;;;;5059487;28;20578;-50
2023/03/31 07:06:34;;;;;;;1143.00;125.20;;;9.60;99.90;;;;;;5061414;28;20325;-50
2023/03/31 07:09:03;;;;;;;673.73;107.80;;;9.60;99.90;;;;;;5070006;28;20213;-50
2023/03/31 07:11:32;;;;;;;1999.90;417.33;;;9.60;99.90;;;;;;5069483;28;20694;-50
2023/03/31 07:14:00;;;;;;;1733.87;183.40;;;9.60;99.90;;;;;;5069747;28;20663;-50
2023/03/31 07:16:28;;;;;;;1998.67;192.07;;;9.60;99.90;;;;;;5069741;28;20704;-50
2023/03/31 07:18:58;;;;;;;1560.27;163.43;;;9.60;99.90;;;;;;5069679;28;20208;-50
2023/03/31 07:21:26;;;;;;;808.43;98.60;;;9.70;99.90;;;;;;5068913;28;20319;-49
2023/03/31 07:23:54;;;;;;;1999.90;223.27;;;9.70;99.90;;;;;;5069353;28;20315;-50
2023/03/31 07:26:23;;;;;;;1699.10;185.10;;;9.70;99.90;;;;;;5069731;28;20776;-51
2023/03/31 07:28:55;;;;;;;1035.63;125.53;;;9.70;99.90;;;;;;5069595;28;20717;-50
2023/03/31 07:31:23;;;;;;;429.07;89.53;;;9.70;99.90;;;;;;5069673;28;20585;-50
2023/03/31 07:33:51;;;;;;;1999.90;788.87;;;9.70;99.90;;;;;;5069575;28;20215;-51
2023/03/31 07:36:19;;;;;;;1999.90;301.27;;;9.50;99.90;;;;;;5069358;28;20705;-50
2023/03/31 07:38:48;;;;;;;1293.43;151.43;;;9.60;99.90;;;;;;5069241;28;20216;-49
2023/03/31 07:41:18;;;;;;;1581.97;179.30;;;9.60;99.90;;;;;;5069583;28;20287;-50
2023/03/31 07:43:47;;;;;;;1311.43;136.60;;;9.60;99.90;;;;;;5069748;28;20244;-49
2023/03/31 07:46:19;;;;;;;810.40;108.47;;;9.60;99.90;;;;;;5069305;28;20637;-50
2023/03/31 07:48:48;;;;;;;1639.33;150.07;;;9.60;99.90;;;;;;5069352;28;20217;-50
2023/03/31 07:51:18;;;;;;;1999.90;657.60;;;9.60;99.90;;;;;;5069582;28;20241;-49
2023/03/31 07:53:48;;;;;;;1999.90;367.50;;;9.50;99.90;;;;;;5069480;28;20240;-49
2023/03/31 07:56:16;;;;;;;1541.67;162.43;;;9.50;99.90;;;;;;5069164;28;20717;-50
2023/03/31 07:58:45;;;;;;;1999.90;293.67;;;9.40;99.90;;;;;;5069194;28;20243;-49
2023/03/31 08:01:15;;;;;;;1999.90;253.13;;;9.40;99.90;;;;;;5069347;28;20243;-50
2023/03/31 08:03:46;;;;;;;1999.90;340.80;;;9.50;99.90;;;;;;5068923;28;20248;-50
2023/03/31 08:06:18;;;;;;;1999.90;398.63;;;9.40;99.90;;;;;;5058345;28;20228;-50
2023/03/31 08:08:46;;;;;;;1999.90;328.43;;;9.40;99.90;;;;;;5063842;28;20228;-51
2023/03/31 08:11:15;;;;;;;1999.90;308.23;;;9.50;99.90;;;;;;5068814;28;20201;-49
2023/03/31 08:13:43;;;;;;;1498.33;180.17;;;9.50;99.90;;;;;;5068899;28;20673;-50
2023/03/31 08:16:11;;;;;;;1999.90;493.73;;;9.60;99.90;;;;;;5068440;28;20319;-50
2023/03/31 08:18:39;;;;;;;996.27;108.73;;;9.60;99.90;;;;;;5069286;28;20201;-50
2023/03/31 08:21:09;;;;;;;1999.90;268.83;;;9.60;99.90;;;;;;5069001;28;20197;-51
2023/03/31 08:23:37;;;;;;;1999.90;264.07;;;9.70;99.90;;;;;;5068893;28;20761;-50
2023/03/31 08:26:11;;;;;;;1999.90;278.83;;;9.70;99.90;;;;;;5068519;28;20221;-49
2023/03/31 08:28:40;;;;;;;824.00;110.17;;;9.70;99.90;;;;;;5068711;28;20220;-50
2023/03/31 08:31:09;;;;;;;915.57;107.00;;;9.80;99.90;;;;;;5069136;28;20208;-50
2023/03/31 08:33:37;;;;;;;806.47;106.13;;;9.80;99.90;;;;;;5068472;28;20207;-50
2023/03/31 08:36:09;;;;;;;1655.70;188.00;;;9.90;99.90;;;;;;5068730;28;20228;-50
2023/03/31 08:38:40;;;;;;;1999.90;288.63;;;9.90;99.90;;;;;;5068739;28;20303;-50
2023/03/31 08:41:41;;;;;;;472.70;51.40;;;9.90;99.90;;;;;;5068521;28;20216;-51
2023/03/31 08:44:15;;;;;;;481.83;52.90;;;9.90;99.90;;;;;;5069163;28;20247;-49
2023/03/31 08:46:43;;;;;;;1359.57;180.10;;;10.00;99.90;;;;;;5068979;28;20231;-50
2023/03/31 08:49:15;;;;;;;1999.90;337.83;;;10.10;99.90;;;;;;5068665;28;20324;-50
2023/03/31 08:51:48;;;;;;;1645.73;222.43;;;10.20;99.90;;;;;;5068842;28;20209;-50
2023/03/31 08:54:26;;;;;;;938.17;134.47;;;10.30;99.90;;;;;;5069096;28;20258;-50
2023/03/31 08:56:54;;;;;;;1884.97;501.27;;;10.40;99.90;;;;;;5068289;28;20308;-50
2023/03/31 08:59:30;;;;;;;1947.50;194.10;;;10.50;99.90;;;;;;5067967;28;20197;-50
2023/03/31 09:02:05;;;;;;;1999.90;348.33;;;10.70;99.90;;;;;;5068368;28;20304;-50
2023/03/31 09:05:05;;;;;;;1999.90;278.00;;;10.70;99.90;;;;;;5068772;28;20262;-50
2023/03/31 09:07:43;;;;;;;1999.90;279.20;;;10.90;99.90;;;;;;5068435;28;20307;-50
2023/03/31 09:10:28;;;;;;;1999.90;346.70;;;10.90;99.90;;;;;;5068628;28;20220;-50
2023/03/31 09:13:01;;;;;;;1999.90;446.63;;;10.90;99.90;;;;;;5056737;28;20336;-50
2023/03/31 09:15:34;;;;;;;1999.90;556.80;;;10.90;99.90;;;;;;5068526;28;20258;-50
2023/03/31 09:18:10;;;;;;;1999.90;345.07;;;10.90;99.90;;;;;;5068300;28;20590;-50
2023/03/31 09:20:43;;;;;;;1999.90;375.20;;;11.00;99.90;;;;;;5068794;28;20232;-50
2023/03/31 09:23:24;;;;;;;1999.90;367.80;;;11.20;99.90;;;;;;5068995;28;20270;-50
2023/03/31 09:25:53;;;;;;;1999.90;301.13;;;11.30;99.90;;;;;;5068567;28;20785;-50
2023/03/31 09:28:27;;;;;;;1999.90;571.60;;;11.50;99.90;;;;;;5068728;28;20197;-50
2023/03/31 09:30:55;;;;;;;1999.90;381.93;;;11.60;99.90;;;;;;5060475;28;20224;-51
2023/03/31 09:33:30;;;;;;;1999.90;641.03;;;11.50;99.90;;;;;;5068140;28;20292;-51
2023/03/31 09:35:59;;;;;;;1999.90;410.50;;;11.70;99.90;;;;;;5067990;28;20256;-50
2023/03/31 09:38:30;;;;;;;1999.90;383.53;;;11.90;99.90;;;;;;5068223;28;20254;-50
2023/03/31 09:40:58;;;;;;;1999.90;410.00;;;12.00;99.90;;;;;;5068258;28;20204;-51
2023/03/31 09:43:28;;;;;;;1973.70;280.00;;;12.10;99.90;;;;;;5068152;28;20204;-51
2023/03/31 09:45:57;;;;;;;1999.90;532.67;;;12.10;99.90;;;;;;5070634;28;20648;-51
2023/03/31 09:48:38;;;;;;;1999.90;350.23;;;12.00;99.90;;;;;;5071725;28;20227;-50
2023/03/31 09:51:13;;;;;;;1999.90;495.07;;;12.00;99.90;;;;;;5065972;28;20797;-51
2023/03/31 09:53:48;;;;;;;1999.90;275.90;;;12.00;99.90;;;;;;5063268;28;20213;-51
2023/03/31 09:56:33;;;;;;;1926.80;238.17;;;12.00;99.90;;;;;;5071099;28;20307;-51
2023/03/31 09:59:02;;;;;;;1999.90;576.87;;;12.30;99.90;;;;;;5071432;28;20590;-51
2023/03/31 10:01:31;;;;;;;1999.90;442.67;;;12.30;99.90;;;;;;5071282;28;20316;-51
2023/03/31 10:03:59;;;;;;;1999.90;435.60;;;12.30;99.90;;;;;;5071410;28;20201;-51
2023/03/31 10:06:27;;;;;;;1999.90;408.10;;;12.40;99.90;;;;;;5071100;28;20263;-51
2023/03/31 10:08:59;;;;;;;1999.90;319.50;;;12.50;99.90;;;;;;5070951;28;20677;-51
2023/03/31 10:11:27;;;;;;;1999.90;601.60;;;12.60;99.90;;;;;;5071169;28;20320;-51
2023/03/31 10:14:03;;;;;;;1999.90;607.27;;;13.00;99.90;;;;;;5071154;28;20295;-51
2023/03/31 10:16:34;;;;;;;1999.90;483.73;;;13.40;99.90;;;;;;5070917;28;20267;-51
2023/03/31 10:19:20;;;;;;;1999.90;490.60;;;13.60;99.90;;;;;;5071112;28;20209;-51
2023/03/31 10:21:54;;;;;;;1999.90;587.85;;;13.70;99.90;;;;;;5069998;28;20212;-51
2023/03/31 10:24:26;;;;;;;1999.90;740.55;;;14.00;99.90;;;;;;5061011;28;20200;-51
2023/03/31 10:26:56;;;;;;;1999.90;549.15;;;14.10;99.90;;;;;;5069964;28;20279;-51
2023/03/31 10:29:31;;;;;;;1999.90;668.92;;;14.10;99.90;;;;;;5070780;28;20200;-52
2023/03/31 10:32:05;;;;;;;1999.90;680.78;;;13.90;99.90;;;;;;5070335;28;20878;-51
2023/03/31 10:34:33;;;;;;;1999.90;480.13;;;13.80;99.90;;;;;;5070848;28;20197;-51
2023/03/31 10:37:05;;;;;;;1999.90;537.78;;;13.90;99.90;;;;;;5070271;28;20228;-51
2023/03/31 10:39:34;;;;;;;1999.90;637.60;;;13.80;99.90;;;;;;5070511;28;20280;-50
2023/03/31 10:42:02;;;;;;;1999.90;676.45;;;13.80;99.90;;;;;;5069951;28;20209;-51
2023/03/31 10:44:33;;;;;;;1999.90;622.17;;;13.70;99.90;;;;;;5070475;28;20213;-51
2023/03/31 10:47:07;;;;;;;1999.90;727.00;;;13.60;99.90;;;;;;5069892;28;20231;-50
2023/03/31 10:49:39;;;;;;;1999.90;475.20;;;13.50;99.90;;;;;;5070282;28;20288;-51
2023/03/31 10:52:17;;;;;;;1999.90;553.40;;;13.50;99.90;;;;;;5069958;28;20295;-52
2023/03/31 10:54:55;;;;;;;1999.90;633.28;;;13.60;99.90;;;;;;5069783;28;20209;-51
2023/03/31 10:57:32;;;;;;;1999.90;698.47;;;13.40;99.90;;;;;;5069869;28;20228;-51
2023/03/31 11:00:16;;;;;;;1999.90;610.63;;;13.50;99.90;;;;;;5066469;28;20219;-51
2023/03/31 11:03:15;;;;;;;1999.90;369.67;;;13.40;99.90;;;;;;5057589;28;20221;-51
2023/03/31 11:05:49;;;;;;;1999.90;435.35;;;13.50;99.90;;;;;;5069365;28;20205;-51
2023/03/31 11:08:34;;;;;;;1999.90;479.83;;;13.60;99.90;;;;;;5069877;28;20871;-51
2023/03/31 11:11:37;;;;;;;1999.90;339.65;;;13.70;99.90;;;;;;5069749;28;20263;-51
2023/03/31 11:14:15;;;;;;;1999.90;439.67;;;13.70;99.90;;;;;;5069698;28;20230;-51
2023/03/31 11:16:49;;;;;;;1999.90;603.37;;;13.80;99.90;;;;;;5069482;28;20318;-51
2023/03/31 11:19:30;;;;;;;1999.90;449.37;;;13.80;99.90;;;;;;5069941;28;20637;-51
2023/03/31 11:22:08;;;;;;;1999.90;512.90;;;14.00;99.90;;;;;;5069960;28;20266;-50
2023/03/31 11:25:01;;;;;;;1999.90;822.75;;;14.00;99.90;;;;;;5069900;28;20200;-51
2023/03/31 11:27:42;;;;;;;1999.90;577.87;;;13.80;99.90;;;;;;5069408;28;20289;-51
2023/03/31 11:30:23;;;;;;;1999.90;412.80;;;13.70;99.90;;;;;;5069818;28;20211;-50
2023/03/31 11:33:02;;;;;;;1999.90;754.50;;;13.60;99.90;;;;;;5069451;28;20209;-51
2023/03/31 11:35:44;;;;;;;1999.90;664.33;;;13.50;99.90;;;;;;5069692;28;20200;-52
2023/03/31 11:38:32;;;;;;;1999.90;624.80;;;13.40;99.90;;;;;;5069387;28;20216;-51
2023/03/31 11:41:05;;;;;;;1999.90;401.70;;;13.50;99.90;;;;;;5069474;28;20229;-51
2023/03/31 11:43:39;;;;;;;1999.90;380.47;;;13.50;99.90;;;;;;5069673;28;20205;-51
2023/03/31 11:46:13;;;;;;;1999.90;535.63;;;13.50;99.90;;;;;;5068980;28;20311;-51
2023/03/31 11:48:46;;;;;;;1999.90;508.27;;;13.70;99.90;;;;;;5069184;28;20328;-51
2023/03/31 11:51:17;;;;;;;1999.90;548.97;;;13.90;99.90;;;;;;5069190;28;20213;-51
2023/03/31 11:53:48;;;;;;;1999.90;714.78;;;14.10;99.90;;;;;;5069154;28;20224;-50
2023/03/31 11:56:18;;;;;;;1999.90;790.45;;;14.20;99.90;;;;;;5068991;28;20916;-51
2023/03/31 11:58:54;;;;;;;1999.90;625.22;;;14.10;99.90;;;;;;5069503;28;20581;-51
2023/03/31 12:01:28;;;;;;;1999.90;406.92;;;13.80;99.90;;;;;;5069339;28;20291;-54
2023/03/31 12:04:02;;;;;;;1999.90;706.75;;;13.70;99.90;;;;;;5061847;28;20737;-51
2023/03/31 12:06:33;;;;;;;1999.90;715.40;;;13.90;99.90;;;;;;5068805;28;20230;-51
2023/03/31 12:09:12;;;;;;;1999.90;636.75;;;14.20;99.90;;;;;;5067493;28;20823;-51
2023/03/31 12:11:45;;;;;;;1999.90;577.97;;;14.70;99.90;;;;;;5068357;28;20227;-51
2023/03/31 12:14:26;;;;;;;1999.90;635.33;;;15.10;99.90;;;;;;5068886;28;20284;-51
2023/03/31 12:16:59;;;;;;;1999.90;927.22;;;15.30;99.90;;;;;;5068703;28;20243;-51
2023/03/31 12:19:33;;;;;;;1999.90;590.63;;;15.40;99.90;;;;;;5068600;28;20292;-51
2023/03/31 12:22:10;;;;;;;1999.90;763.00;;;15.40;99.90;;;;;;5068118;28;20291;-52
2023/03/31 12:24:38;;;;;;;1999.90;999.90;;;15.40;99.90;;;;;;5054598;28;20300;-51
2023/03/31 12:27:12;;;;;;;1999.90;841.63;;;15.50;99.90;;;;;;5068957;28;20320;-50
2023/03/31 12:29:45;;;;;;;1999.90;833.28;;;15.60;99.90;;;;;;5068791;28;20313;-50
2023/03/31 12:32:17;;;;;;;1999.90;827.55;;;15.50;99.90;;;;;;5068829;28;20259;-51
2023/03/31 12:34:51;;;;;;;1999.90;801.30;;;15.50;99.90;;;;;;5068132;28;20689;-50